sensor_id;sensor_type;location;lat;lon;timestamp;temperature;humidity
2749;DHT22;1382;52.142;11.618;2023-11-19T00:02:25;10.10;56.40
2749;DHT22;1382;52.142;11.618;2023-11-19T00:04:52;10.10;56.60
2749;DHT22;1382;52.142;11.618;2023-11-19T00:07:18;10.10;56.40
2749;DHT22;1382;52.142;11.618;2023-11-19T00:09:47;10.10;56.60
2749;DHT22;1382;52.142;11.618;2023-11-19T00:12:15;10.30;56.70
2749;DHT22;1382;52.142;11.618;2023-11-19T00:14:42;10.10;56.40
2749;DHT22;1382;52.142;11.618;2023-11-19T00:17:09;10.20;56.40
2749;DHT22;1382;52.142;11.618;2023-11-19T00:19:35;10.10;56.90
2749;DHT22;1382;52.142;11.618;2023-11-19T00:22:02;10.10;56.80
2749;DHT22;1382;52.142;11.618;2023-11-19T00:24:30;10.10;56.80
2749;DHT22;1382;52.142;11.618;2023-11-19T00:26:57;10.10;56.80
2749;DHT22;1382;52.142;11.618;2023-11-19T00:29:25;10.10;56.80
2749;DHT22;1382;52.142;11.618;2023-11-19T00:31:52;10.10;56.70
2749;DHT22;1382;52.142;11.618;2023-11-19T00:34:19;10.10;56.50
2749;DHT22;1382;52.142;11.618;2023-11-19T00:36:46;10.10;56.60
2749;DHT22;1382;52.142;11.618;2023-11-19T00:39:12;10.10;56.50
2749;DHT22;1382;52.142;11.618;2023-11-19T00:41:39;10.10;56.70
2749;DHT22;1382;52.142;11.618;2023-11-19T00:44:06;10.10;56.60
2749;DHT22;1382;52.142;11.618;2023-11-19T00:46:34;10.10;56.60
2749;DHT22;1382;52.142;11.618;2023-11-19T00:49:01;10.10;56.50
2749;DHT22;1382;52.142;11.618;2023-11-19T00:51:28;10.20;56.70
2749;DHT22;1382;52.142;11.618;2023-11-19T00:53:55;10.10;56.60
2749;DHT22;1382;52.142;11.618;2023-11-19T00:56:21;10.30;57.00
2749;DHT22;1382;52.142;11.618;2023-11-19T00:58:48;10.10;56.80
2749;DHT22;1382;52.142;11.618;2023-11-19T01:01:15;10.20;57.10
2749;DHT22;1382;52.142;11.618;2023-11-19T01:03:43;10.10;56.70
2749;DHT22;1382;52.142;11.618;2023-11-19T01:06:10;10.10;56.70
2749;DHT22;1382;52.142;11.618;2023-11-19T01:08:37;10.10;56.60
2749;DHT22;1382;52.142;11.618;2023-11-19T01:11:04;10.10;56.70
2749;DHT22;1382;52.142;11.618;2023-11-19T01:13:31;10.10;56.90
2749;DHT22;1382;52.142;11.618;2023-11-19T01:15:58;10.10;56.90
2749;DHT22;1382;52.142;11.618;2023-11-19T01:18:25;10.10;56.90
2749;DHT22;1382;52.142;11.618;2023-11-19T01:20:53;10.10;56.80
2749;DHT22;1382;52.142;11.618;2023-11-19T01:23:20;10.10;56.90
2749;DHT22;1382;52.142;11.618;2023-11-19T01:25:46;10.10;56.70
2749;DHT22;1382;52.142;11.618;2023-11-19T01:28:13;10.10;56.70
2749;DHT22;1382;52.142;11.618;2023-11-19T01:30:40;10.10;56.60
2749;DHT22;1382;52.142;11.618;2023-11-19T01:33:07;10.10;56.90
2749;DHT22;1382;52.142;11.618;2023-11-19T01:35:34;10.10;56.70
2749;DHT22;1382;52.142;11.618;2023-11-19T01:38:02;10.10;56.60
2749;DHT22;1382;52.142;11.618;2023-11-19T01:40:29;10.10;56.70
2749;DHT22;1382;52.142;11.618;2023-11-19T01:42:56;10.10;56.60
2749;DHT22;1382;52.142;11.618;2023-11-19T01:45:28;10.10;56.50
2749;DHT22;1382;52.142;11.618;2023-11-19T01:47:55;10.10;56.60
2749;DHT22;1382;52.142;11.618;2023-11-19T01:50:22;10.10;56.50
2749;DHT22;1382;52.142;11.618;2023-11-19T01:52:50;10.10;56.70
2749;DHT22;1382;52.142;11.618;2023-11-19T01:55:20;10.10;56.60
2749;DHT22;1382;52.142;11.618;2023-11-19T01:57:48;10.10;56.80
2749;DHT22;1382;52.142;11.618;2023-11-19T02:00:15;10.10;56.70
2749;DHT22;1382;52.142;11.618;2023-11-19T02:02:43;10.30;57.00
2749;DHT22;1382;52.142;11.618;2023-11-19T02:05:11;10.10;56.60
2749;DHT22;1382;52.142;11.618;2023-11-19T02:07:38;10.10;56.50
2749;DHT22;1382;52.142;11.618;2023-11-19T02:13:37;10.20;56.70
2749;DHT22;1382;52.142;11.618;2023-11-19T02:16:04;10.10;56.60
2749;DHT22;1382;52.142;11.618;2023-11-19T02:18:32;10.10;56.70
2749;DHT22;1382;52.142;11.618;2023-11-19T02:20:59;10.10;56.50
2749;DHT22;1382;52.142;11.618;2023-11-19T02:23:27;10.20;56.60
2749;DHT22;1382;52.142;11.618;2023-11-19T02:26:02;10.20;56.70
2749;DHT22;1382;52.142;11.618;2023-11-19T02:28:30;10.20;56.70
2749;DHT22;1382;52.142;11.618;2023-11-19T02:30:57;10.20;56.50
2749;DHT22;1382;52.142;11.618;2023-11-19T02:33:24;10.20;56.50
2749;DHT22;1382;52.142;11.618;2023-11-19T02:35:51;10.20;56.50
2749;DHT22;1382;52.142;11.618;2023-11-19T02:38:17;10.20;56.40
2749;DHT22;1382;52.142;11.618;2023-11-19T02:40:44;10.20;56.40
2749;DHT22;1382;52.142;11.618;2023-11-19T02:43:11;10.20;56.50
2749;DHT22;1382;52.142;11.618;2023-11-19T02:45:39;10.20;56.60
2749;DHT22;1382;52.142;11.618;2023-11-19T02:48:06;10.20;56.60
2749;DHT22;1382;52.142;11.618;2023-11-19T02:50:33;10.30;56.60
2749;DHT22;1382;52.142;11.618;2023-11-19T02:53:00;10.30;56.40
2749;DHT22;1382;52.142;11.618;2023-11-19T02:55:27;10.30;57.30
2749;DHT22;1382;52.142;11.618;2023-11-19T02:57:54;10.30;56.80
2749;DHT22;1382;52.142;11.618;2023-11-19T03:00:21;10.30;56.70
2749;DHT22;1382;52.142;11.618;2023-11-19T03:02:50;10.30;56.70
2749;DHT22;1382;52.142;11.618;2023-11-19T03:05:18;10.30;56.60
2749;DHT22;1382;52.142;11.618;2023-11-19T03:07:44;10.30;56.60
2749;DHT22;1382;52.142;11.618;2023-11-19T03:10:12;10.30;56.60
2749;DHT22;1382;52.142;11.618;2023-11-19T03:12:39;10.30;56.50
2749;DHT22;1382;52.142;11.618;2023-11-19T03:15:07;10.50;56.80
2749;DHT22;1382;52.142;11.618;2023-11-19T03:17:34;10.30;56.70
2749;DHT22;1382;52.142;11.618;2023-11-19T03:20:04;10.30;56.60
2749;DHT22;1382;52.142;11.618;2023-11-19T03:22:31;10.40;57.00
2749;DHT22;1382;52.142;11.618;2023-11-19T03:24:57;10.40;56.80
2749;DHT22;1382;52.142;11.618;2023-11-19T03:27:24;10.30;56.40
2749;DHT22;1382;52.142;11.618;2023-11-19T03:29:51;10.40;56.60
2749;DHT22;1382;52.142;11.618;2023-11-19T03:32:18;10.40;56.60
2749;DHT22;1382;52.142;11.618;2023-11-19T03:34:45;10.40;56.50
2749;DHT22;1382;52.142;11.618;2023-11-19T03:37:13;10.40;56.80
2749;DHT22;1382;52.142;11.618;2023-11-19T03:39:40;10.40;56.70
2749;DHT22;1382;52.142;11.618;2023-11-19T03:42:07;10.40;56.80
2749;DHT22;1382;52.142;11.618;2023-11-19T03:44:34;10.40;57.10
2749;DHT22;1382;52.142;11.618;2023-11-19T03:47:00;10.40;57.00
2749;DHT22;1382;52.142;11.618;2023-11-19T03:49:27;10.60;57.00
2749;DHT22;1382;52.142;11.618;2023-11-19T03:51:54;10.60;57.00
2749;DHT22;1382;52.142;11.618;2023-11-19T03:54:22;10.40;56.90
2749;DHT22;1382;52.142;11.618;2023-11-19T03:56:49;10.40;56.80
2749;DHT22;1382;52.142;11.618;2023-11-19T03:59:16;10.40;56.90
2749;DHT22;1382;52.142;11.618;2023-11-19T04:01:43;10.40;56.90
2749;DHT22;1382;52.142;11.618;2023-11-19T04:04:10;10.60;57.30
2749;DHT22;1382;52.142;11.618;2023-11-19T04:06:37;10.40;56.80
2749;DHT22;1382;52.142;11.618;2023-11-19T04:09:04;10.50;57.10
2749;DHT22;1382;52.142;11.618;2023-11-19T04:11:32;10.40;57.10
2749;DHT22;1382;52.142;11.618;2023-11-19T04:13:58;10.50;57.40
2749;DHT22;1382;52.142;11.618;2023-11-19T04:16:26;10.50;57.40
2749;DHT22;1382;52.142;11.618;2023-11-19T04:18:53;10.50;57.40
2749;DHT22;1382;52.142;11.618;2023-11-19T04:21:20;10.50;57.30
2749;DHT22;1382;52.142;11.618;2023-11-19T04:23:47;10.50;57.50
2749;DHT22;1382;52.142;11.618;2023-11-19T04:26:13;10.50;57.50
2749;DHT22;1382;52.142;11.618;2023-11-19T04:28:42;10.50;57.40
2749;DHT22;1382;52.142;11.618;2023-11-19T04:31:08;10.60;57.60
2749;DHT22;1382;52.142;11.618;2023-11-19T04:33:35;10.60;57.60
2749;DHT22;1382;52.142;11.618;2023-11-19T04:36:03;10.60;57.60
2749;DHT22;1382;52.142;11.618;2023-11-19T04:38:30;10.60;57.40
2749;DHT22;1382;52.142;11.618;2023-11-19T04:40:57;10.60;58.10
2749;DHT22;1382;52.142;11.618;2023-11-19T04:43:24;10.60;58.20
2749;DHT22;1382;52.142;11.618;2023-11-19T04:45:52;10.70;58.20
2749;DHT22;1382;52.142;11.618;2023-11-19T04:48:19;10.70;58.70
2749;DHT22;1382;52.142;11.618;2023-11-19T04:50:46;10.70;58.80
2749;DHT22;1382;52.142;11.618;2023-11-19T04:53:13;10.70;59.00
2749;DHT22;1382;52.142;11.618;2023-11-19T04:55:40;10.80;59.30
2749;DHT22;1382;52.142;11.618;2023-11-19T04:58:07;10.70;59.10
2749;DHT22;1382;52.142;11.618;2023-11-19T05:00:34;10.80;59.50
2749;DHT22;1382;52.142;11.618;2023-11-19T05:03:02;11.00;59.70
2749;DHT22;1382;52.142;11.618;2023-11-19T05:05:29;10.80;59.80
2749;DHT22;1382;52.142;11.618;2023-11-19T05:07:56;10.90;60.00
2749;DHT22;1382;52.142;11.618;2023-11-19T05:10:23;10.90;60.30
2749;DHT22;1382;52.142;11.618;2023-11-19T05:12:50;10.80;60.10
2749;DHT22;1382;52.142;11.618;2023-11-19T05:15:17;11.10;60.30
2749;DHT22;1382;52.142;11.618;2023-11-19T05:17:44;10.90;60.30
2749;DHT22;1382;52.142;11.618;2023-11-19T05:20:12;10.90;60.50
2749;DHT22;1382;52.142;11.618;2023-11-19T05:22:39;11.10;60.70
2749;DHT22;1382;52.142;11.618;2023-11-19T05:25:07;10.90;60.70
2749;DHT22;1382;52.142;11.618;2023-11-19T05:27:34;11.00;60.60
2749;DHT22;1382;52.142;11.618;2023-11-19T05:30:01;11.10;61.10
2749;DHT22;1382;52.142;11.618;2023-11-19T05:32:27;11.00;61.10
2749;DHT22;1382;52.142;11.618;2023-11-19T05:34:54;11.10;61.00
2749;DHT22;1382;52.142;11.618;2023-11-19T05:37:23;11.10;61.00
2749;DHT22;1382;52.142;11.618;2023-11-19T05:39:50;11.10;61.50
2749;DHT22;1382;52.142;11.618;2023-11-19T05:42:17;11.10;61.30
2749;DHT22;1382;52.142;11.618;2023-11-19T05:44:44;11.10;61.50
2749;DHT22;1382;52.142;11.618;2023-11-19T05:47:11;11.20;62.20
2749;DHT22;1382;52.142;11.618;2023-11-19T05:49:38;11.20;61.90
2749;DHT22;1382;52.142;11.618;2023-11-19T05:52:04;11.20;62.00
2749;DHT22;1382;52.142;11.618;2023-11-19T05:54:33;11.30;62.60
2749;DHT22;1382;52.142;11.618;2023-11-19T05:56:59;11.30;62.80
2749;DHT22;1382;52.142;11.618;2023-11-19T05:59:26;11.30;62.80
2749;DHT22;1382;52.142;11.618;2023-11-19T06:01:53;11.30;62.20
2749;DHT22;1382;52.142;11.618;2023-11-19T06:04:20;11.60;62.90
2749;DHT22;1382;52.142;11.618;2023-11-19T06:06:47;11.40;62.50
2749;DHT22;1382;52.142;11.618;2023-11-19T06:09:14;11.60;62.20
2749;DHT22;1382;52.142;11.618;2023-11-19T06:11:42;11.50;62.80
2749;DHT22;1382;52.142;11.618;2023-11-19T06:14:09;11.50;62.90
2749;DHT22;1382;52.142;11.618;2023-11-19T06:16:35;11.60;63.00
2749;DHT22;1382;52.142;11.618;2023-11-19T06:19:02;11.80;63.00
2749;DHT22;1382;52.142;11.618;2023-11-19T06:21:29;11.70;63.10
2749;DHT22;1382;52.142;11.618;2023-11-19T06:23:56;11.70;62.80
2749;DHT22;1382;52.142;11.618;2023-11-19T06:26:23;11.70;62.30
2749;DHT22;1382;52.142;11.618;2023-11-19T06:28:51;11.80;62.70
2749;DHT22;1382;52.142;11.618;2023-11-19T06:31:18;11.90;62.40
2749;DHT22;1382;52.142;11.618;2023-11-19T06:33:46;11.80;62.30
2749;DHT22;1382;52.142;11.618;2023-11-19T06:36:14;11.90;62.50
2749;DHT22;1382;52.142;11.618;2023-11-19T06:38:41;11.90;62.20
2749;DHT22;1382;52.142;11.618;2023-11-19T06:41:08;11.90;62.00
2749;DHT22;1382;52.142;11.618;2023-11-19T06:43:36;11.90;62.50
2749;DHT22;1382;52.142;11.618;2023-11-19T06:46:14;12.00;62.10
2749;DHT22;1382;52.142;11.618;2023-11-19T06:48:41;12.00;61.80
2749;DHT22;1382;52.142;11.618;2023-11-19T06:51:08;12.00;61.70
2749;DHT22;1382;52.142;11.618;2023-11-19T06:53:35;12.10;61.90
2749;DHT22;1382;52.142;11.618;2023-11-19T06:56:02;12.00;61.80
2749;DHT22;1382;52.142;11.618;2023-11-19T06:58:29;12.00;61.80
2749;DHT22;1382;52.142;11.618;2023-11-19T07:00:56;12.00;61.70
2749;DHT22;1382;52.142;11.618;2023-11-19T07:03:24;12.00;61.50
2749;DHT22;1382;52.142;11.618;2023-11-19T07:05:51;12.00;61.30
2749;DHT22;1382;52.142;11.618;2023-11-19T07:08:19;12.20;61.10
2749;DHT22;1382;52.142;11.618;2023-11-19T07:10:46;12.00;60.70
2749;DHT22;1382;52.142;11.618;2023-11-19T07:13:13;12.10;61.20
2749;DHT22;1382;52.142;11.618;2023-11-19T07:15:40;12.10;61.50
2749;DHT22;1382;52.142;11.618;2023-11-19T07:18:07;12.10;61.90
2749;DHT22;1382;52.142;11.618;2023-11-19T07:20:35;12.10;61.90
2749;DHT22;1382;52.142;11.618;2023-11-19T07:23:02;12.10;61.20
2749;DHT22;1382;52.142;11.618;2023-11-19T07:25:29;12.10;61.80
2749;DHT22;1382;52.142;11.618;2023-11-19T07:27:56;12.20;61.60
2749;DHT22;1382;52.142;11.618;2023-11-19T07:30:26;12.20;61.40
2749;DHT22;1382;52.142;11.618;2023-11-19T07:32:52;12.20;61.60
2749;DHT22;1382;52.142;11.618;2023-11-19T07:35:19;12.20;61.10
2749;DHT22;1382;52.142;11.618;2023-11-19T07:37:48;12.20;61.00
2749;DHT22;1382;52.142;11.618;2023-11-19T07:40:15;12.30;61.60
2749;DHT22;1382;52.142;11.618;2023-11-19T07:42:41;12.30;61.40
2749;DHT22;1382;52.142;11.618;2023-11-19T07:45:09;12.50;61.70
2749;DHT22;1382;52.142;11.618;2023-11-19T07:47:36;12.40;61.50
2749;DHT22;1382;52.142;11.618;2023-11-19T07:50:03;12.40;61.90
2749;DHT22;1382;52.142;11.618;2023-11-19T07:52:30;12.40;61.60
2749;DHT22;1382;52.142;11.618;2023-11-19T07:54:58;12.40;61.50
2749;DHT22;1382;52.142;11.618;2023-11-19T07:57:25;12.50;61.40
2749;DHT22;1382;52.142;11.618;2023-11-19T07:59:52;12.50;61.30
2749;DHT22;1382;52.142;11.618;2023-11-19T08:02:19;12.70;62.10
2749;DHT22;1382;52.142;11.618;2023-11-19T08:04:45;12.60;62.80
2749;DHT22;1382;52.142;11.618;2023-11-19T08:07:15;12.60;63.00
2749;DHT22;1382;52.142;11.618;2023-11-19T08:09:42;12.70;63.30
2749;DHT22;1382;52.142;11.618;2023-11-19T08:12:10;12.70;64.10
2749;DHT22;1382;52.142;11.618;2023-11-19T08:14:37;12.90;64.40
2749;DHT22;1382;52.142;11.618;2023-11-19T08:17:04;12.90;64.30
2749;DHT22;1382;52.142;11.618;2023-11-19T08:19:30;12.90;63.80
2749;DHT22;1382;52.142;11.618;2023-11-19T08:21:58;12.90;63.30
2749;DHT22;1382;52.142;11.618;2023-11-19T08:24:25;13.00;63.20
2749;DHT22;1382;52.142;11.618;2023-11-19T08:26:52;13.00;63.20
2749;DHT22;1382;52.142;11.618;2023-11-19T08:29:23;13.10;63.80
2749;DHT22;1382;52.142;11.618;2023-11-19T08:31:50;13.20;64.10
2749;DHT22;1382;52.142;11.618;2023-11-19T08:34:17;13.20;63.80
2749;DHT22;1382;52.142;11.618;2023-11-19T08:36:43;13.30;63.60
2749;DHT22;1382;52.142;11.618;2023-11-19T08:39:10;13.30;63.40
2749;DHT22;1382;52.142;11.618;2023-11-19T08:41:37;13.50;62.90
2749;DHT22;1382;52.142;11.618;2023-11-19T08:44:04;13.40;62.20
2749;DHT22;1382;52.142;11.618;2023-11-19T08:46:32;13.40;62.40
2749;DHT22;1382;52.142;11.618;2023-11-19T08:48:59;13.50;63.80
2749;DHT22;1382;52.142;11.618;2023-11-19T08:51:26;13.60;63.60
2749;DHT22;1382;52.142;11.618;2023-11-19T08:53:53;13.60;63.30
2749;DHT22;1382;52.142;11.618;2023-11-19T08:56:19;13.70;63.90
2749;DHT22;1382;52.142;11.618;2023-11-19T08:58:46;13.70;63.70
2749;DHT22;1382;52.142;11.618;2023-11-19T09:01:13;14.00;64.00
2749;DHT22;1382;52.142;11.618;2023-11-19T09:03:42;14.00;63.60
2749;DHT22;1382;52.142;11.618;2023-11-19T09:06:09;13.90;63.40
2749;DHT22;1382;52.142;11.618;2023-11-19T09:08:41;14.00;63.40
2749;DHT22;1382;52.142;11.618;2023-11-19T09:11:09;14.20;63.30
2749;DHT22;1382;52.142;11.618;2023-11-19T09:13:36;14.30;63.00
2749;DHT22;1382;52.142;11.618;2023-11-19T09:16:03;14.20;62.90
2749;DHT22;1382;52.142;11.618;2023-11-19T09:18:30;14.30;63.00
2749;DHT22;1382;52.142;11.618;2023-11-19T09:20:59;14.30;62.80
2749;DHT22;1382;52.142;11.618;2023-11-19T09:23:26;14.40;62.20
2749;DHT22;1382;52.142;11.618;2023-11-19T09:25:53;14.50;62.00
2749;DHT22;1382;52.142;11.618;2023-11-19T09:28:19;14.50;61.90
2749;DHT22;1382;52.142;11.618;2023-11-19T09:30:46;14.50;61.60
2749;DHT22;1382;52.142;11.618;2023-11-19T09:33:13;14.70;61.80
2749;DHT22;1382;52.142;11.618;2023-11-19T09:35:40;14.70;61.70
2749;DHT22;1382;52.142;11.618;2023-11-19T09:38:08;14.80;62.00
2749;DHT22;1382;52.142;11.618;2023-11-19T09:40:35;14.90;61.80
2749;DHT22;1382;52.142;11.618;2023-11-19T09:43:02;14.90;61.50
2749;DHT22;1382;52.142;11.618;2023-11-19T09:45:30;15.00;61.60
2749;DHT22;1382;52.142;11.618;2023-11-19T09:48:00;15.10;61.30
2749;DHT22;1382;52.142;11.618;2023-11-19T09:50:27;15.10;61.00
2749;DHT22;1382;52.142;11.618;2023-11-19T09:52:55;15.10;60.60
2749;DHT22;1382;52.142;11.618;2023-11-19T09:55:23;15.20;60.60
2749;DHT22;1382;52.142;11.618;2023-11-19T09:57:51;15.30;60.20
2749;DHT22;1382;52.142;11.618;2023-11-19T10:00:21;15.30;59.70
2749;DHT22;1382;52.142;11.618;2023-11-19T10:02:48;15.40;59.50
2749;DHT22;1382;52.142;11.618;2023-11-19T10:05:17;15.50;59.20
2749;DHT22;1382;52.142;11.618;2023-11-19T10:07:45;15.50;59.10
2749;DHT22;1382;52.142;11.618;2023-11-19T10:10:12;15.60;58.80
2749;DHT22;1382;52.142;11.618;2023-11-19T10:12:40;15.60;58.60
2749;DHT22;1382;52.142;11.618;2023-11-19T10:15:24;15.80;58.70
2749;DHT22;1382;52.142;11.618;2023-11-19T10:17:51;15.70;58.50
2749;DHT22;1382;52.142;11.618;2023-11-19T10:20:18;15.80;58.30
2749;DHT22;1382;52.142;11.618;2023-11-19T10:22:45;15.80;58.20
2749;DHT22;1382;52.142;11.618;2023-11-19T10:25:27;15.80;58.10
2749;DHT22;1382;52.142;11.618;2023-11-19T10:27:56;15.90;58.00
2749;DHT22;1382;52.142;11.618;2023-11-19T10:30:24;15.90;58.10
2749;DHT22;1382;52.142;11.618;2023-11-19T10:33:03;16.00;57.80
2749;DHT22;1382;52.142;11.618;2023-11-19T10:35:30;16.00;57.40
2749;DHT22;1382;52.142;11.618;2023-11-19T10:37:59;16.00;57.50
2749;DHT22;1382;52.142;11.618;2023-11-19T10:40:37;16.10;57.30
2749;DHT22;1382;52.142;11.618;2023-11-19T10:43:06;16.10;57.00
2749;DHT22;1382;52.142;11.618;2023-11-19T10:45:33;16.10;57.00
2749;DHT22;1382;52.142;11.618;2023-11-19T10:48:00;16.00;56.90
2749;DHT22;1382;52.142;11.618;2023-11-19T10:50:28;16.00;56.70
2749;DHT22;1382;52.142;11.618;2023-11-19T10:52:56;16.10;56.70
2749;DHT22;1382;52.142;11.618;2023-11-19T10:55:27;16.10;56.60
2749;DHT22;1382;52.142;11.618;2023-11-19T10:57:58;16.10;56.80
2749;DHT22;1382;52.142;11.618;2023-11-19T11:00:28;16.10;56.90
2749;DHT22;1382;52.142;11.618;2023-11-19T11:03:00;16.10;56.70
2749;DHT22;1382;52.142;11.618;2023-11-19T11:05:29;16.10;56.80
2749;DHT22;1382;52.142;11.618;2023-11-19T11:08:00;16.10;56.80
2749;DHT22;1382;52.142;11.618;2023-11-19T11:10:28;16.20;56.80
2749;DHT22;1382;52.142;11.618;2023-11-19T11:12:59;16.20;56.80
2749;DHT22;1382;52.142;11.618;2023-11-19T11:15:30;16.20;56.80
2749;DHT22;1382;52.142;11.618;2023-11-19T11:18:00;16.30;56.80
2749;DHT22;1382;52.142;11.618;2023-11-19T11:20:28;16.30;56.80
2749;DHT22;1382;52.142;11.618;2023-11-19T11:23:15;16.40;56.90
2749;DHT22;1382;52.142;11.618;2023-11-19T11:25:54;16.50;56.80
2749;DHT22;1382;52.142;11.618;2023-11-19T11:28:30;16.50;56.60
2749;DHT22;1382;52.142;11.618;2023-11-19T11:31:12;16.50;56.30
2749;DHT22;1382;52.142;11.618;2023-11-19T11:34:02;16.60;56.00
2749;DHT22;1382;52.142;11.618;2023-11-19T11:36:36;16.70;55.80
2749;DHT22;1382;52.142;11.618;2023-11-19T11:39:06;16.60;55.60
2749;DHT22;1382;52.142;11.618;2023-11-19T11:41:34;16.70;56.00
2749;DHT22;1382;52.142;11.618;2023-11-19T11:44:02;16.70;55.40
2749;DHT22;1382;52.142;11.618;2023-11-19T11:46:55;16.70;55.30
2749;DHT22;1382;52.142;11.618;2023-11-19T11:49:28;16.80;55.60
2749;DHT22;1382;52.142;11.618;2023-11-19T11:52:02;16.80;55.50
2749;DHT22;1382;52.142;11.618;2023-11-19T11:54:29;16.80;55.40
2749;DHT22;1382;52.142;11.618;2023-11-19T11:57:04;16.80;55.40
2749;DHT22;1382;52.142;11.618;2023-11-19T11:59:51;16.90;55.20
2749;DHT22;1382;52.142;11.618;2023-11-19T12:02:20;16.90;54.50
2749;DHT22;1382;52.142;11.618;2023-11-19T12:04:50;16.80;54.10
2749;DHT22;1382;52.142;11.618;2023-11-19T12:07:20;16.80;54.20
2749;DHT22;1382;52.142;11.618;2023-11-19T12:09:48;16.80;54.30
2749;DHT22;1382;52.142;11.618;2023-11-19T12:12:22;16.80;54.60
2749;DHT22;1382;52.142;11.618;2023-11-19T12:15:16;16.80;54.60
2749;DHT22;1382;52.142;11.618;2023-11-19T12:17:47;16.90;54.40
2749;DHT22;1382;52.142;11.618;2023-11-19T12:20:18;16.80;55.00
2749;DHT22;1382;52.142;11.618;2023-11-19T12:23:04;16.80;54.60
2749;DHT22;1382;52.142;11.618;2023-11-19T12:25:34;16.90;54.30
2749;DHT22;1382;52.142;11.618;2023-11-19T12:28:01;16.90;54.00
2749;DHT22;1382;52.142;11.618;2023-11-19T12:30:28;16.90;54.40
2749;DHT22;1382;52.142;11.618;2023-11-19T12:32:56;16.90;54.70
2749;DHT22;1382;52.142;11.618;2023-11-19T12:35:23;16.90;54.50
2749;DHT22;1382;52.142;11.618;2023-11-19T12:37:51;17.00;54.80
2749;DHT22;1382;52.142;11.618;2023-11-19T12:40:19;16.90;54.70
2749;DHT22;1382;52.142;11.618;2023-11-19T12:42:47;17.00;54.80
2749;DHT22;1382;52.142;11.618;2023-11-19T12:45:14;17.00;54.90
2749;DHT22;1382;52.142;11.618;2023-11-19T12:47:42;17.10;55.00
2749;DHT22;1382;52.142;11.618;2023-11-19T12:50:10;17.10;54.90
2749;DHT22;1382;52.142;11.618;2023-11-19T12:52:37;17.20;54.60
2749;DHT22;1382;52.142;11.618;2023-11-19T12:55:06;17.20;54.60
2749;DHT22;1382;52.142;11.618;2023-11-19T12:57:53;17.20;54.60
2749;DHT22;1382;52.142;11.618;2023-11-19T13:00:21;17.20;54.60
2749;DHT22;1382;52.142;11.618;2023-11-19T13:02:49;17.30;54.70
2749;DHT22;1382;52.142;11.618;2023-11-19T13:05:26;17.50;54.60
2749;DHT22;1382;52.142;11.618;2023-11-19T13:08:01;17.40;54.20
2749;DHT22;1382;52.142;11.618;2023-11-19T13:10:28;17.40;54.20
2749;DHT22;1382;52.142;11.618;2023-11-19T13:13:05;17.30;54.20
2749;DHT22;1382;52.142;11.618;2023-11-19T13:15:33;17.40;53.90
2749;DHT22;1382;52.142;11.618;2023-11-19T13:18:00;17.40;54.10
2749;DHT22;1382;52.142;11.618;2023-11-19T13:20:28;17.30;54.50
2749;DHT22;1382;52.142;11.618;2023-11-19T13:22:56;17.40;54.00
2749;DHT22;1382;52.142;11.618;2023-11-19T13:25:23;17.50;54.50
2749;DHT22;1382;52.142;11.618;2023-11-19T13:27:50;17.40;53.90
2749;DHT22;1382;52.142;11.618;2023-11-19T13:30:17;17.40;54.10
2749;DHT22;1382;52.142;11.618;2023-11-19T13:32:47;17.40;53.90
2749;DHT22;1382;52.142;11.618;2023-11-19T13:35:14;17.30;53.80
2749;DHT22;1382;52.142;11.618;2023-11-19T13:37:43;17.40;54.00
2749;DHT22;1382;52.142;11.618;2023-11-19T13:40:11;17.30;53.80
2749;DHT22;1382;52.142;11.618;2023-11-19T13:42:38;17.30;54.00
2749;DHT22;1382;52.142;11.618;2023-11-19T13:45:06;17.40;54.30
2749;DHT22;1382;52.142;11.618;2023-11-19T13:47:33;17.40;54.20
2749;DHT22;1382;52.142;11.618;2023-11-19T13:49:59;17.40;53.70
2749;DHT22;1382;52.142;11.618;2023-11-19T13:52:26;17.50;53.70
2749;DHT22;1382;52.142;11.618;2023-11-19T13:54:55;17.40;54.50
2749;DHT22;1382;52.142;11.618;2023-11-19T13:57:22;17.50;54.00
2749;DHT22;1382;52.142;11.618;2023-11-19T13:59:48;17.40;53.90
2749;DHT22;1382;52.142;11.618;2023-11-19T14:02:15;17.40;53.10
2749;DHT22;1382;52.142;11.618;2023-11-19T14:04:42;17.40;53.50
2749;DHT22;1382;52.142;11.618;2023-11-19T14:07:09;17.30;53.30
2749;DHT22;1382;52.142;11.618;2023-11-19T14:09:41;17.30;53.30
2749;DHT22;1382;52.142;11.618;2023-11-19T14:12:10;17.30;52.90
2749;DHT22;1382;52.142;11.618;2023-11-19T14:14:37;17.40;53.10
2749;DHT22;1382;52.142;11.618;2023-11-19T14:17:04;17.30;53.60
2749;DHT22;1382;52.142;11.618;2023-11-19T14:19:33;17.20;53.30
2749;DHT22;1382;52.142;11.618;2023-11-19T14:22:00;17.20;53.20
2749;DHT22;1382;52.142;11.618;2023-11-19T14:24:27;17.20;53.30
2749;DHT22;1382;52.142;11.618;2023-11-19T14:26:54;17.20;53.40
2749;DHT22;1382;52.142;11.618;2023-11-19T14:29:22;17.20;53.40
2749;DHT22;1382;52.142;11.618;2023-11-19T14:31:49;17.10;53.20
2749;DHT22;1382;52.142;11.618;2023-11-19T14:34:16;17.10;53.30
2749;DHT22;1382;52.142;11.618;2023-11-19T14:36:43;17.10;53.30
2749;DHT22;1382;52.142;11.618;2023-11-19T14:39:09;17.10;53.60
2749;DHT22;1382;52.142;11.618;2023-11-19T14:41:36;17.00;53.60
2749;DHT22;1382;52.142;11.618;2023-11-19T14:44:03;17.00;53.60
2749;DHT22;1382;52.142;11.618;2023-11-19T14:46:32;17.00;53.60
2749;DHT22;1382;52.142;11.618;2023-11-19T14:48:59;17.00;53.80
2749;DHT22;1382;52.142;11.618;2023-11-19T14:51:26;17.00;53.90
2749;DHT22;1382;52.142;11.618;2023-11-19T14:53:53;17.00;53.90
2749;DHT22;1382;52.142;11.618;2023-11-19T14:56:19;16.90;53.80
2749;DHT22;1382;52.142;11.618;2023-11-19T14:58:46;16.90;53.70
2749;DHT22;1382;52.142;11.618;2023-11-19T15:01:13;16.90;53.90
2749;DHT22;1382;52.142;11.618;2023-11-19T15:03:43;16.90;53.80
2749;DHT22;1382;52.142;11.618;2023-11-19T15:06:13;16.80;53.70
2749;DHT22;1382;52.142;11.618;2023-11-19T15:08:40;16.80;53.80
2749;DHT22;1382;52.142;11.618;2023-11-19T15:11:07;16.70;54.00
2749;DHT22;1382;52.142;11.618;2023-11-19T15:13:34;16.70;54.10
2749;DHT22;1382;52.142;11.618;2023-11-19T15:16:00;16.70;54.20
2749;DHT22;1382;52.142;11.618;2023-11-19T15:18:27;16.70;54.40
2749;DHT22;1382;52.142;11.618;2023-11-19T15:20:56;16.60;54.30
2749;DHT22;1382;52.142;11.618;2023-11-19T15:23:22;16.60;54.30
2749;DHT22;1382;52.142;11.618;2023-11-19T15:25:49;16.70;54.50
2749;DHT22;1382;52.142;11.618;2023-11-19T15:28:16;16.60;54.40
2749;DHT22;1382;52.142;11.618;2023-11-19T15:30:43;16.60;54.60
2749;DHT22;1382;52.142;11.618;2023-11-19T15:33:10;16.60;54.50
2749;DHT22;1382;52.142;11.618;2023-11-19T15:35:36;16.50;54.70
2749;DHT22;1382;52.142;11.618;2023-11-19T15:38:05;16.50;54.70
2749;DHT22;1382;52.142;11.618;2023-11-19T15:40:32;16.50;54.80
2749;DHT22;1382;52.142;11.618;2023-11-19T15:42:59;16.40;55.00
2749;DHT22;1382;52.142;11.618;2023-11-19T15:45:25;16.40;55.20
2749;DHT22;1382;52.142;11.618;2023-11-19T15:47:52;16.30;55.20
2749;DHT22;1382;52.142;11.618;2023-11-19T15:50:19;16.40;55.30
2749;DHT22;1382;52.142;11.618;2023-11-19T15:52:46;16.40;55.30
2749;DHT22;1382;52.142;11.618;2023-11-19T15:55:15;16.50;55.40